createdAt,value
2022-08-19T00:02:00.299Z,7.03
2022-08-19T00:04:31.770Z,5.68
2022-08-19T00:07:01.126Z,6.45
2022-08-19T00:09:30.718Z,6.60
2022-08-19T00:12:01.924Z,6.45
2022-08-19T00:14:32.529Z,7.38
2022-08-19T00:17:02.014Z,6.50
2022-08-19T00:19:30.492Z,6.82
2022-08-19T00:21:58.922Z,7.05
2022-08-19T00:24:29.663Z,7.20
2022-08-19T00:27:25.240Z,7.28
2022-08-19T00:29:52.558Z,8.32
2022-08-19T00:32:21.878Z,7.20
2022-08-19T00:34:50.175Z,7.63
2022-08-19T00:37:19.023Z,6.80
2022-08-19T00:39:49.168Z,7.28
2022-08-19T00:42:17.735Z,7.95
2022-08-19T00:44:48.722Z,7.25
2022-08-19T00:49:52.290Z,6.35
2022-08-19T00:52:25.883Z,6.43
2022-08-19T00:54:54.889Z,7.18
2022-08-19T00:57:30.751Z,7.30
2022-08-19T01:00:03.327Z,7.22
2022-08-19T01:02:33.470Z,5.50
2022-08-19T01:05:02.879Z,5.55
2022-08-19T01:07:35.753Z,6.22
2022-08-19T01:10:10.365Z,5.45
2022-08-19T01:12:39.673Z,5.88
2022-08-19T01:15:13.791Z,6.63
2022-08-19T01:17:43.836Z,5.50
2022-08-19T01:20:14.740Z,5.78
2022-08-19T01:22:48.297Z,5.53
2022-08-19T01:25:19.481Z,5.47
2022-08-19T01:27:53.471Z,5.63
2022-08-19T01:30:25.900Z,6.47
2022-08-19T01:32:55.612Z,6.80
2022-08-19T01:35:26.099Z,7.40
2022-08-19T01:38:00.906Z,8.05
2022-08-19T01:40:34.127Z,7.60
2022-08-19T01:43:03.170Z,6.90
2022-08-19T01:45:34.603Z,7.45
2022-08-19T01:48:05.608Z,6.10
2022-08-19T01:50:35.673Z,5.97
2022-08-19T01:53:08.802Z,6.32
2022-08-19T01:55:40.790Z,7.35
2022-08-19T01:58:13.569Z,6.20
2022-08-19T02:00:42.357Z,6.40
2022-08-19T02:03:12.388Z,6.85
2022-08-19T02:05:42.123Z,8.13
2022-08-19T02:08:12.664Z,7.80
2022-08-19T02:10:43.336Z,5.93
2022-08-19T02:13:11.928Z,6.80
2022-08-19T02:15:40.643Z,6.85
2022-08-19T02:18:09.544Z,7.80
2022-08-19T02:20:39.760Z,7.10
2022-08-19T02:23:13.849Z,8.37
2022-08-19T02:25:48.882Z,7.80
2022-08-19T02:28:18.955Z,8.38
2022-08-19T02:30:49.135Z,8.50
2022-08-19T02:33:18.424Z,9.05
2022-08-19T02:35:47.874Z,9.05
2022-08-19T02:38:28.996Z,8.57
2022-08-19T02:43:33.912Z,8.55
2022-08-19T02:46:04.233Z,10.07
2022-08-19T02:48:33.964Z,9.25
2022-08-19T02:51:02.350Z,9.57
2022-08-19T02:53:30.781Z,8.48
2022-08-19T02:56:00.361Z,9.73
2022-08-19T02:58:28.738Z,9.98
2022-08-19T03:00:59.153Z,9.38
2022-08-19T03:03:28.218Z,8.68
2022-08-19T03:06:11.130Z,10.65
2022-08-19T03:08:40.500Z,10.10
2022-08-19T03:11:16.065Z,9.90
2022-08-19T03:13:44.766Z,9.52
2022-08-19T03:16:14.662Z,10.00
2022-08-19T03:18:42.956Z,9.50
2022-08-19T03:21:17.431Z,10.05
2022-08-19T03:23:45.922Z,10.15
2022-08-19T03:26:17.094Z,9.57
2022-08-19T03:28:51.666Z,9.00
2022-08-19T03:34:19.280Z,9.23
2022-08-19T03:36:49.079Z,10.25
2022-08-19T03:39:18.508Z,10.23
2022-08-19T03:42:32.229Z,10.40
2022-08-19T03:44:39.828Z,9.73
2022-08-19T03:47:08.429Z,9.85
2022-08-19T03:49:37.607Z,10.13
2022-08-19T03:52:08.503Z,10.98
2022-08-19T03:57:07.779Z,9.70
2022-08-19T03:59:39.125Z,10.65
2022-08-19T04:02:12.379Z,11.30
2022-08-19T04:04:44.163Z,12.13
2022-08-19T04:07:19.173Z,10.88
2022-08-19T04:09:47.399Z,12.13
2022-08-19T04:12:17.117Z,10.68
2022-08-19T04:14:45.448Z,11.02
2022-08-19T04:17:15.225Z,11.55
2022-08-19T04:19:43.991Z,11.15
2022-08-19T04:22:12.984Z,11.02
2022-08-19T04:24:41.172Z,11.20
2022-08-19T04:27:09.469Z,10.73
2022-08-19T04:29:40.409Z,10.55
2022-08-19T04:32:09.783Z,10.95
2022-08-19T04:35:03.156Z,10.85
2022-08-19T04:37:34.822Z,11.52
2022-08-19T04:40:24.940Z,12.25
2022-08-19T04:42:55.036Z,12.73
2022-08-19T04:45:25.129Z,12.40
2022-08-19T04:48:26.194Z,12.38
2022-08-19T04:50:47.600Z,12.07
2022-08-19T04:53:16.268Z,11.82
2022-08-19T04:55:44.792Z,12.00
2022-08-19T04:58:12.974Z,11.93
2022-08-19T05:00:42.891Z,11.90
2022-08-19T05:03:11.412Z,11.48
2022-08-19T05:05:44.668Z,10.90
2022-08-19T05:08:13.474Z,12.32
2022-08-19T05:10:44.062Z,13.32
2022-08-19T05:13:12.400Z,12.18
2022-08-19T05:15:42.097Z,12.32
2022-08-19T05:18:27.907Z,12.18
2022-08-19T05:21:13.765Z,12.48
2022-08-19T05:23:42.121Z,13.52
2022-08-19T05:26:11.461Z,12.48
2022-08-19T05:28:39.648Z,12.10
2022-08-19T05:31:09.214Z,11.63
2022-08-19T05:33:37.765Z,11.80
2022-08-19T05:36:08.199Z,12.18
2022-08-19T05:38:37.426Z,12.75
2022-08-19T05:41:10.080Z,12.25
2022-08-19T05:43:38.809Z,11.98
2022-08-19T05:46:09.659Z,12.77
2022-08-19T05:48:38.131Z,12.57
2022-08-19T05:51:09.182Z,12.50
2022-08-19T05:56:07.811Z,11.50
2022-08-19T05:58:36.926Z,11.75
2022-08-19T06:01:11.089Z,12.68
2022-08-19T06:03:40.531Z,11.55
2022-08-19T06:06:10.452Z,13.18
2022-08-19T06:08:39.301Z,14.07
2022-08-19T06:11:25.299Z,13.43
2022-08-19T06:14:00.283Z,13.75
2022-08-19T06:16:32.734Z,13.48
2022-08-19T06:19:07.845Z,13.63
2022-08-19T06:21:39.357Z,14.20
2022-08-19T06:24:11.107Z,14.35
2022-08-19T06:26:43.094Z,15.27
2022-08-19T06:29:23.407Z,15.55
2022-08-19T06:31:57.856Z,15.30
2022-08-19T06:34:28.325Z,16.27
2022-08-19T06:37:00.339Z,16.17
2022-08-19T06:39:33.636Z,15.50
2022-08-19T06:42:04.806Z,15.93
2022-08-19T06:44:39.504Z,16.40
2022-08-19T06:47:23.721Z,16.30
2022-08-19T06:50:01.068Z,15.23
2022-08-19T06:52:29.915Z,14.65
2022-08-19T06:54:59.708Z,14.93
2022-08-19T06:57:33.601Z,15.18
2022-08-19T07:00:02.128Z,14.95
2022-08-19T07:02:31.726Z,16.58
2022-08-19T07:05:00.374Z,16.50
2022-08-19T07:07:29.225Z,16.45
2022-08-19T07:10:00.188Z,15.57
2022-08-19T07:12:35.458Z,17.00
2022-08-19T07:15:05.672Z,17.23
2022-08-19T07:17:35.752Z,14.98
2022-08-19T07:20:09.310Z,18.03
2022-08-19T07:22:38.490Z,17.55
2022-08-19T07:25:09.596Z,17.10
2022-08-19T07:27:38.119Z,17.23
2022-08-19T07:30:11.672Z,18.60
2022-08-19T07:32:43.352Z,17.02
2022-08-19T07:37:45.062Z,16.08
2022-08-19T07:40:15.157Z,16.13
2022-08-19T07:42:44.340Z,16.30
2022-08-19T07:45:12.623Z,16.02
2022-08-19T07:47:49.460Z,15.48
2022-08-19T07:50:22.335Z,14.32
2022-08-19T07:52:51.538Z,15.18
2022-08-19T07:55:41.390Z,16.20
2022-08-19T07:58:13.060Z,13.93
2022-08-19T08:00:41.501Z,14.57
2022-08-19T08:03:14.717Z,13.88
2022-08-19T08:06:00.677Z,14.75
2022-08-19T08:08:48.266Z,14.43
2022-08-19T08:11:20.637Z,14.40
2022-08-19T08:14:00.561Z,13.70
2022-08-19T08:16:33.505Z,14.95
2022-08-19T08:19:07.235Z,14.18
2022-08-19T08:21:46.959Z,14.45
2022-08-19T08:24:15.494Z,13.02
2022-08-19T08:26:46.770Z,12.75
2022-08-19T08:29:20.624Z,13.15
2022-08-19T08:31:58.508Z,13.15
2022-08-19T08:34:29.924Z,11.35
2022-08-19T08:36:58.291Z,11.73
2022-08-19T08:39:26.522Z,11.07
2022-08-19T08:42:02.161Z,11.70
2022-08-19T08:44:50.120Z,10.48
2022-08-19T08:47:23.005Z,9.90
2022-08-19T08:49:58.612Z,10.10
2022-08-19T08:52:32.104Z,9.43
2022-08-19T08:55:10.534Z,9.45
2022-08-19T08:57:51.717Z,9.07
2022-08-19T09:00:24.026Z,8.20
2022-08-19T09:02:52.331Z,9.35
2022-08-19T09:05:26.089Z,9.77
2022-08-19T09:08:02.925Z,9.32
2022-08-19T09:10:44.033Z,8.88
2022-08-19T09:13:23.244Z,9.65
2022-08-19T09:15:57.237Z,10.65
2022-08-19T09:18:25.702Z,12.48
2022-08-19T09:20:59.454Z,10.25
2022-08-19T09:23:27.771Z,12.45
2022-08-19T09:25:56.110Z,14.02
2022-08-19T09:28:27.286Z,13.90
2022-08-19T09:30:55.736Z,13.77
2022-08-19T09:33:24.133Z,15.02
2022-08-19T09:35:53.669Z,15.82
2022-08-19T09:38:23.693Z,15.70
2022-08-19T09:40:51.963Z,14.80
2022-08-19T09:43:33.009Z,15.68
2022-08-19T09:46:02.557Z,15.25
2022-08-19T09:48:30.898Z,16.50
2022-08-19T09:51:06.270Z,20.48
2022-08-19T09:53:36.621Z,17.50
2022-08-19T09:56:07.668Z,18.67
2022-08-19T09:58:38.978Z,19.00
2022-08-19T10:01:09.452Z,24.20
2022-08-19T10:03:39.199Z,22.17
2022-08-19T10:06:15.017Z,35.03
2022-08-19T10:08:50.363Z,40.35
2022-08-19T10:11:28.840Z,33.25
2022-08-19T10:14:07.859Z,42.65
2022-08-19T10:16:39.724Z,46.25
2022-08-19T10:19:08.337Z,46.85
2022-08-19T10:21:37.573Z,53.47
2022-08-19T10:24:10.229Z,58.40
2022-08-19T10:26:42.976Z,63.38
2022-08-19T10:29:12.180Z,44.33
2022-08-19T10:32:00.898Z,19.92
2022-08-19T10:34:30.572Z,13.60
2022-08-19T10:37:01.781Z,10.52
2022-08-19T10:39:43.462Z,7.45
2022-08-19T10:42:14.140Z,13.30
2022-08-19T10:44:42.795Z,7.40
2022-08-19T10:47:24.616Z,7.90
2022-08-19T10:50:12.261Z,10.73
2022-08-19T10:52:48.960Z,8.63
2022-08-19T10:55:40.139Z,6.93
2022-08-19T10:58:14.114Z,7.18
2022-08-19T11:00:43.467Z,6.78
2022-08-19T11:03:12.335Z,7.00
2022-08-19T11:05:41.855Z,5.97
2022-08-19T11:08:23.503Z,4.60
2022-08-19T11:10:56.333Z,5.47
2022-08-19T11:13:25.618Z,4.13
2022-08-19T11:16:06.747Z,3.20
2022-08-19T11:18:37.055Z,3.65
2022-08-19T11:21:12.413Z,2.70
2022-08-19T11:23:41.167Z,2.47
2022-08-19T11:26:10.956Z,3.85
2022-08-19T11:28:39.610Z,2.65
2022-08-19T11:31:13.641Z,4.38
2022-08-19T11:33:42.265Z,4.25
2022-08-19T11:36:16.949Z,2.40
2022-08-19T11:38:45.766Z,2.67
2022-08-19T11:41:18.742Z,2.00
2022-08-19T11:43:47.287Z,1.70
2022-08-19T11:46:17.386Z,2.35
2022-08-19T11:48:46.123Z,2.33
2022-08-19T11:51:19.369Z,2.00
2022-08-19T11:53:48.278Z,2.08
2022-08-19T11:56:18.005Z,2.17
2022-08-19T11:58:46.529Z,1.67
2022-08-19T12:01:18.252Z,2.35
2022-08-19T12:03:48.988Z,2.28
2022-08-19T12:06:20.725Z,2.17
2022-08-19T12:08:49.489Z,1.98
2022-08-19T12:11:19.125Z,2.55
2022-08-19T12:13:48.703Z,2.53
2022-08-19T12:16:20.855Z,2.33
2022-08-19T12:18:49.202Z,2.33
2022-08-19T12:21:19.341Z,2.20
2022-08-19T12:23:47.592Z,1.85
2022-08-19T12:26:15.925Z,2.72
2022-08-19T12:28:45.865Z,2.03
2022-08-19T12:31:14.348Z,2.13
2022-08-19T12:33:43.467Z,3.22
2022-08-19T12:36:15.325Z,2.90
2022-08-19T12:38:45.057Z,3.42
2022-08-19T12:41:19.187Z,2.13
2022-08-19T12:43:49.199Z,1.80
2022-08-19T12:46:18.954Z,1.88
2022-08-19T12:48:47.766Z,1.83
2022-08-19T12:51:23.824Z,1.70
2022-08-19T12:53:52.040Z,1.90
2022-08-19T12:56:23.182Z,1.73
2022-08-19T12:58:53.351Z,1.60
2022-08-19T13:01:23.291Z,1.92
2022-08-19T13:03:53.551Z,1.77
2022-08-19T13:06:22.329Z,3.30
2022-08-19T13:08:50.594Z,2.45
2022-08-19T13:11:25.229Z,2.35
2022-08-19T13:13:56.214Z,3.13
2022-08-19T13:16:24.542Z,1.55
2022-08-19T13:18:53.851Z,1.95
2022-08-19T13:21:24.284Z,1.63
2022-08-19T13:23:53.730Z,1.58
2022-08-19T13:26:22.103Z,2.00
2022-08-19T13:29:08.029Z,1.95
2022-08-19T13:31:55.994Z,2.45
2022-08-19T13:34:32.194Z,2.22
2022-08-19T13:37:00.751Z,2.08
2022-08-19T13:39:28.962Z,1.70
2022-08-19T13:41:57.417Z,1.95
2022-08-19T13:44:25.659Z,1.85
2022-08-19T13:46:55.229Z,2.33
2022-08-19T13:49:24.177Z,2.47
2022-08-19T13:51:52.478Z,6.75
2022-08-19T13:54:20.722Z,2.42
2022-08-19T13:56:49.521Z,6.10
2022-08-19T13:59:18.648Z,2.55
2022-08-19T14:01:46.917Z,2.97
2022-08-19T14:04:16.495Z,3.35
2022-08-19T14:06:44.705Z,2.83
2022-08-19T14:09:12.912Z,2.60
2022-08-19T14:11:41.112Z,5.40
2022-08-19T14:14:12.219Z,5.30
2022-08-19T14:16:43.734Z,5.03
2022-08-19T14:19:11.883Z,10.55
2022-08-19T14:21:42.102Z,3.50
2022-08-19T14:24:10.390Z,5.28
2022-08-19T14:26:39.483Z,4.63
2022-08-19T14:29:07.774Z,4.95
2022-08-19T14:31:35.983Z,5.88
2022-08-19T14:34:04.170Z,8.63
2022-08-19T14:36:38.993Z,9.75
2022-08-19T14:39:09.325Z,17.05
2022-08-19T14:41:38.110Z,20.83
2022-08-19T14:44:06.453Z,11.98
2022-08-19T14:46:35.111Z,8.82
2022-08-19T14:49:09.228Z,5.28
2022-08-19T14:51:37.939Z,3.45
2022-08-19T14:54:06.287Z,7.80
2022-08-19T14:56:36.032Z,8.63
2022-08-19T14:59:04.325Z,15.73
2022-08-19T15:01:32.608Z,13.63
2022-08-19T15:04:01.045Z,22.23
2022-08-19T15:06:30.402Z,11.25
2022-08-19T15:09:02.043Z,24.25
2022-08-19T15:11:33.722Z,27.27
2022-08-19T15:14:03.552Z,35.38
2022-08-19T15:16:31.833Z,36.42
2022-08-19T15:19:02.351Z,50.88
2022-08-19T15:21:31.796Z,41.08
2022-08-19T15:24:01.904Z,43.05
2022-08-19T15:26:33.190Z,34.38
2022-08-19T15:29:04.004Z,34.65
2022-08-19T15:31:38.077Z,28.33
2022-08-19T15:42:31.301Z,27.92
2022-08-19T15:45:02.573Z,18.15
2022-08-19T15:47:45.764Z,25.45
2022-08-19T15:50:18.477Z,30.75
2022-08-19T15:52:50.235Z,31.90
2022-08-19T15:55:33.286Z,27.10
2022-08-19T15:58:28.674Z,20.50
2022-08-19T16:01:18.821Z,24.42
2022-08-19T16:04:13.919Z,27.60
2022-08-19T16:06:46.783Z,23.30
2022-08-19T16:09:15.778Z,30.98
2022-08-19T16:11:46.436Z,26.20
2022-08-19T16:21:31.850Z,20.83
2022-08-19T16:24:02.244Z,23.40
2022-08-19T16:26:31.690Z,22.42
2022-08-19T16:29:01.104Z,22.75
2022-08-19T16:31:30.796Z,28.77
2022-08-19T16:33:59.338Z,24.60
2022-08-19T16:36:31.227Z,29.23
2022-08-19T16:38:59.917Z,24.88
2022-08-19T16:41:28.651Z,25.23
2022-08-19T16:43:57.068Z,25.70
2022-08-19T16:46:27.473Z,23.35
2022-08-19T16:48:55.897Z,25.67
2022-08-19T16:51:24.253Z,20.98
2022-08-19T16:53:53.917Z,24.45
2022-08-19T16:56:22.759Z,21.58
2022-08-19T16:58:51.307Z,23.48
2022-08-19T17:01:20.040Z,22.08
2022-08-19T17:57:26.406Z,9.35
2022-08-19T18:03:07.662Z,8.07
2022-08-19T18:05:44.402Z,8.50
2022-08-19T18:08:12.692Z,8.30
2022-08-19T18:10:42.301Z,7.63
2022-08-19T18:13:17.254Z,7.82
2022-08-19T18:15:47.396Z,6.90
2022-08-19T18:18:15.782Z,7.05
2022-08-19T18:20:44.562Z,6.10
2022-08-19T18:23:41.310Z,5.82
2022-08-19T18:26:02.989Z,5.70
2022-08-19T18:28:31.558Z,6.63
2022-08-19T18:31:00.208Z,5.90
2022-08-19T18:33:28.537Z,5.80
2022-08-19T18:35:56.905Z,5.88
2022-08-19T18:38:42.571Z,37.33
2022-08-19T18:41:30.475Z,7.53
2022-08-19T18:44:16.142Z,12.05
2022-08-19T18:47:01.850Z,10.00
2022-08-19T18:49:33.278Z,15.48
2022-08-19T18:52:03.632Z,17.58
2022-08-19T18:54:41.547Z,20.13
2022-08-19T18:57:11.109Z,25.67
2022-08-19T18:59:43.555Z,20.80
2022-08-19T19:02:14.085Z,19.23
2022-08-19T19:04:42.742Z,16.33
2022-08-19T19:07:11.548Z,13.48
2022-08-19T19:09:40.256Z,19.02
2022-08-19T19:12:14.242Z,49.30
2022-08-19T19:14:49.462Z,52.50
2022-08-19T19:17:25.753Z,45.55
2022-08-19T19:19:54.091Z,31.92
2022-08-19T19:22:24.615Z,26.50
2022-08-19T19:24:54.148Z,14.13
2022-08-19T19:27:26.671Z,15.90
2022-08-19T19:29:55.724Z,11.15
2022-08-19T19:32:27.624Z,20.95
2022-08-19T19:34:56.297Z,17.08
2022-08-19T19:37:24.461Z,14.88
2022-08-19T19:39:52.851Z,14.70
2022-08-19T19:42:24.705Z,15.55
2022-08-19T19:44:55.862Z,15.10
2022-08-19T19:47:25.626Z,15.73
2022-08-19T19:52:45.684Z,10.93
2022-08-19T19:55:17.904Z,10.73
2022-08-19T19:57:48.736Z,12.23
2022-08-19T20:02:50.126Z,8.00
2022-08-19T20:05:21.615Z,8.10
2022-08-19T20:08:08.253Z,9.05
2022-08-19T20:10:36.974Z,7.22
2022-08-19T20:13:07.877Z,8.82
2022-08-19T20:18:11.522Z,5.65
2022-08-19T20:20:39.917Z,5.75
2022-08-19T20:23:08.964Z,7.40
2022-08-19T20:25:39.815Z,32.22
2022-08-19T20:30:38.453Z,5.38
2022-08-19T20:33:13.829Z,9.73
2022-08-19T20:35:42.673Z,6.78
2022-08-19T20:38:10.931Z,6.30
2022-08-19T20:40:40.091Z,5.35
2022-08-19T20:43:15.012Z,4.50
2022-08-19T20:45:43.311Z,6.07
2022-08-19T20:48:12.495Z,5.47
2022-08-19T20:50:41.106Z,4.65
2022-08-19T20:53:14.848Z,3.63
2022-08-19T20:55:45.632Z,3.80
2022-08-19T20:58:15.280Z,3.67
2022-08-19T21:00:46.045Z,5.45
2022-08-19T21:05:46.738Z,3.75
2022-08-19T21:08:15.636Z,4.85
2022-08-19T21:10:44.637Z,4.78
2022-08-19T21:13:14.441Z,4.57
2022-08-19T21:15:43.343Z,5.72
2022-08-19T21:18:13.765Z,7.60
2022-08-19T21:20:43.616Z,10.18
2022-08-19T21:23:14.663Z,7.45
2022-08-19T21:25:43.614Z,8.15
2022-08-19T21:28:29.902Z,5.43
2022-08-19T21:31:06.521Z,11.32
2022-08-19T21:33:35.259Z,7.30
2022-08-19T21:36:05.359Z,4.50
2022-08-19T21:38:34.009Z,10.50
2022-08-19T21:41:06.139Z,8.40
2022-08-19T21:43:38.550Z,7.30
2022-08-19T21:46:07.807Z,4.65
2022-08-19T21:48:36.204Z,5.05
2022-08-19T21:51:04.717Z,5.82
2022-08-19T21:53:34.218Z,7.63
2022-08-19T21:56:03.227Z,5.80
2022-08-19T21:58:31.474Z,6.70
2022-08-19T22:01:01.762Z,5.82
2022-08-19T22:03:30.950Z,6.32
2022-08-19T22:05:59.702Z,5.75
2022-08-19T22:08:28.286Z,6.00
2022-08-19T22:10:56.533Z,6.95
2022-08-19T22:22:24.167Z,5.50
2022-08-19T22:25:30.031Z,5.75
2022-08-19T22:31:00.243Z,5.57
2022-08-19T22:33:32.300Z,6.32
2022-08-19T22:36:01.261Z,7.10
2022-08-19T22:38:29.454Z,6.38
2022-08-19T22:40:59.173Z,7.35
2022-08-19T22:43:32.574Z,7.40
2022-08-19T22:46:01.588Z,6.63
2022-08-19T22:48:32.595Z,7.63
2022-08-19T22:51:19.653Z,7.53
2022-08-19T22:53:48.624Z,7.68
2022-08-19T22:56:20.426Z,6.28
2022-08-19T22:58:50.590Z,7.43
2022-08-19T23:01:24.866Z,7.70
2022-08-19T23:03:57.416Z,7.10
2022-08-19T23:06:33.149Z,6.65
2022-08-19T23:09:04.726Z,7.20
2022-08-19T23:11:38.086Z,7.53
2022-08-19T23:14:11.126Z,7.07
2022-08-19T23:16:39.512Z,7.15
2022-08-19T23:19:10.575Z,6.82
2022-08-19T23:21:39.649Z,7.30
2022-08-19T23:24:08.785Z,6.80
2022-08-19T23:26:38.801Z,7.80
2022-08-19T23:29:24.774Z,7.03
2022-08-19T23:31:53.158Z,7.25
2022-08-19T23:34:21.425Z,7.38
2022-08-19T23:36:50.735Z,7.40
2022-08-19T23:39:19.340Z,7.40
2022-08-19T23:41:49.033Z,6.90
2022-08-19T23:44:17.431Z,6.95
2022-08-19T23:46:55.167Z,6.95
2022-08-19T23:49:25.181Z,6.40
2022-08-19T23:51:55.115Z,6.93
